Startpagina
METAR-TAF:

METAR-TAF

Vliegvelden :

Aeropuerto de Palma de Mallorca

Palma de Mallorca, Spanje

breedte: 39-33N, lengte: 002-44E, hoogte: 4 m

Actueel weer

Dit bericht is 30 minuten geleden gemaakt, om 23:00 UTC
Wind 7 kt uit het oostnoordoosten, variërend tussen het noordnoordoosten en het oosten
Temperatuur 20°C
Vochtigheid 88%
Druk 1013 hPa
Zicht 10 km of meer
Verspreide wolken op 1700 ft

METAR: LEPA 262300Z 06007KT 020V080 9999 SCT017 20/18 Q1013 NOSIG

Tijdstip: 01:30 (23:30 UTC)

Verwachting

Dit bericht is 6 uur en het 30 minuten geleden gemaakt, om 17:00 UTC
Verwachting geldig van 26 om 18 UTC tot 27 om 18 UTC
Wind 9 kt uit het zuidwesten
Zicht 10 km of meer
Weinig wolken op 3000 ft
Wijzigt naar
van 26 om 18 UTC tot 26 om 21 UTC
Wind 6 kt uit het oostnoordoosten
Wijzigt naar
van 27 om 09 UTC tot 27 om 12 UTC
Wind 12 kt uit het zuidwesten

TAF: LEPA 261700Z 2618/2718 22009KT 9999 FEW030 TX27/2712Z TN15/2706Z BECMG 2618/2621 06006KT BECMG 2709/2712 22012KT

Waarnemingen en weersverwachtingen van meer dan 4000 vliegvelden (METAR en TAF).

De beschikbare stations zijn de gele en rode punten op de kaart.

Ga met uw muis naar het station om de naam te zien.

Klik dan om waarnemingen en weersverwachtingen te zien.

kaart wijzigen: klik op de groene knoppen met een zwart kruis om in te zoomen, op de groene knop met een streepje om uit te zoomen of op de groene pijlen voor aangrenzende kaarten.


METAR-TAF: